Time;durP1;ratioP1;P1;durP2;ratioP2;P2;SDS_P1;SDS_P2;PMS_P1;PMS_P2;Temp;Humidity;BMP_temperature;BMP_pressure;BME280_temperature;BME280_humidity;BME280_pressure;Samples;Min_cycle;Max_cycle;Signal;HPM_P1;HPM_P2
2023/09/15 00:01:21;;;;;;;2.05;1.40;;;;;;;;;;5073628;28;20286;-71
2023/09/15 00:03:49;;;;;;;1.70;1.60;;;;;;;;;;5076579;28;20205;-72
2023/09/15 00:06:16;;;;;;;1.33;1.23;;;;;;;;;;5082722;28;20195;-71
2023/09/15 00:08:43;;;;;;;3.90;1.42;;;;;;;;;;5074502;28;20201;-72
2023/09/15 00:11:15;;;;;;;4.43;1.58;;;;;;;;;;5078409;28;20210;-66
2023/09/15 00:13:42;;;;;;;2.15;1.60;;;;;;;;;;5077222;28;20206;-67
2023/09/15 00:16:11;;;;;;;2.35;1.60;;;;;;;;;;5081659;28;20198;-66
2023/09/15 00:18:38;;;;;;;2.08;1.25;;;;;;;;;;5074697;28;20229;-66
2023/09/15 00:21:08;;;;;;;1.75;1.63;;;;;;;;;;5083059;28;20226;-67
2023/09/15 00:23:37;;;;;;;2.58;1.27;;;;;;;;;;5083354;28;20201;-66
2023/09/15 00:26:04;;;;;;;1.65;1.27;;;;;;;;;;5082450;28;20213;-67
2023/09/15 00:28:31;;;;;;;1.75;1.50;;;;;;;;;;5080772;28;20476;-66
2023/09/15 00:30:59;;;;;;;1.50;1.40;;;;;;;;;;5079670;28;20199;-66
2023/09/15 00:33:28;;;;;;;2.20;1.48;;;;;;;;;;5076724;28;20199;-67
2023/09/15 00:35:55;;;;;;;2.22;1.40;;;;;;;;;;5078123;28;20195;-66
2023/09/15 00:38:22;;;;;;;2.55;1.45;;;;;;;;;;5077688;28;20214;-67
2023/09/15 00:40:50;;;;;;;1.52;1.42;;;;;;;;;;5083201;28;20218;-67
2023/09/15 00:43:17;;;;;;;2.78;1.30;;;;;;;;;;5081161;28;20206;-66
2023/09/15 00:45:45;;;;;;;2.63;1.73;;;;;;;;;;5076690;28;20210;-66
2023/09/15 00:48:14;;;;;;;3.55;1.80;;;;;;;;;;5085463;28;20202;-67
2023/09/15 00:50:43;;;;;;;3.70;1.58;;;;;;;;;;5082362;28;20203;-67
2023/09/15 00:53:12;;;;;;;1.70;1.40;;;;;;;;;;5082448;28;20199;-66
2023/09/15 00:55:40;;;;;;;1.95;1.58;;;;;;;;;;5076042;28;20206;-66
2023/09/15 00:58:11;;;;;;;1.63;1.52;;;;;;;;;;5083164;28;20222;-67
2023/09/15 01:00:39;;;;;;;2.40;1.63;;;;;;;;;;5079515;28;20228;-67
2023/09/15 01:03:07;;;;;;;1.60;1.50;;;;;;;;;;5079625;28;20198;-66
2023/09/15 01:05:34;;;;;;;2.60;1.60;;;;;;;;;;5078915;28;20252;-67
2023/09/15 01:08:03;;;;;;;1.45;1.30;;;;;;;;;;5079622;28;20258;-66
2023/09/15 01:10:30;;;;;;;2.70;1.70;;;;;;;;;;5080466;28;20206;-66
2023/09/15 01:12:57;;;;;;;1.83;1.50;;;;;;;;;;5084217;28;20203;-66
2023/09/15 01:15:27;;;;;;;2.45;1.50;;;;;;;;;;5077649;28;20471;-66
2023/09/15 01:17:57;;;;;;;1.58;1.45;;;;;;;;;;5076502;28;20209;-66
2023/09/15 01:20:34;;;;;;;2.38;1.50;;;;;;;;;;5076763;28;20195;-66
2023/09/15 01:23:12;;;;;;;1.45;1.35;;;;;;;;;;5075807;28;20204;-66
2023/09/15 01:25:47;;;;;;;2.20;1.50;;;;;;;;;;5077991;28;20796;-66
2023/09/15 01:28:30;;;;;;;2.05;1.65;;;;;;;;;;5079181;28;20240;-66
2023/09/15 01:30:59;;;;;;;2.47;1.60;;;;;;;;;;5079606;28;20267;-66
2023/09/15 01:33:26;;;;;;;1.70;1.52;;;;;;;;;;5078089;28;20194;-67
2023/09/15 01:35:53;;;;;;;2.70;1.80;;;;;;;;;;5076102;28;20225;-66
2023/09/15 01:38:20;;;;;;;1.95;1.60;;;;;;;;;;5081320;28;20248;-67
2023/09/15 01:40:47;;;;;;;4.20;1.60;;;;;;;;;;5079062;28;20199;-66
2023/09/15 01:43:14;;;;;;;1.48;1.38;;;;;;;;;;5078340;28;20213;-66
2023/09/15 01:45:41;;;;;;;2.55;1.65;;;;;;;;;;5081183;28;20206;-67
2023/09/15 01:48:10;;;;;;;4.53;1.55;;;;;;;;;;5076742;28;20239;-66
2023/09/15 01:50:38;;;;;;;2.42;1.60;;;;;;;;;;5081137;28;20203;-66
2023/09/15 01:53:05;;;;;;;2.42;1.90;;;;;;;;;;5072673;28;20199;-66
2023/09/15 01:55:33;;;;;;;1.80;1.63;;;;;;;;;;5079992;28;20202;-66
2023/09/15 01:58:00;;;;;;;2.53;1.50;;;;;;;;;;5078634;28;20203;-66
2023/09/15 02:00:34;;;;;;;4.80;1.60;;;;;;;;;;5072849;28;20209;-67
2023/09/15 02:03:01;;;;;;;4.00;1.60;;;;;;;;;;5075773;28;20297;-67
2023/09/15 02:05:30;;;;;;;3.97;1.80;;;;;;;;;;5079797;28;20229;-67
2023/09/15 02:07:57;;;;;;;1.70;1.55;;;;;;;;;;5075605;28;20206;-66
2023/09/15 02:10:25;;;;;;;1.77;1.40;;;;;;;;;;5079337;28;20202;-66
2023/09/15 02:12:52;;;;;;;3.65;1.80;;;;;;;;;;5082575;28;20279;-66
2023/09/15 02:15:19;;;;;;;3.22;1.88;;;;;;;;;;5076220;28;20198;-67
2023/09/15 02:17:46;;;;;;;2.63;1.92;;;;;;;;;;5073778;28;20195;-66
2023/09/15 02:20:14;;;;;;;3.00;1.58;;;;;;;;;;5081518;28;20236;-67
2023/09/15 02:22:44;;;;;;;2.58;1.70;;;;;;;;;;5076962;28;20203;-67
2023/09/15 02:25:11;;;;;;;2.90;1.70;;;;;;;;;;5073648;28;20198;-66
2023/09/15 02:27:38;;;;;;;2.90;1.55;;;;;;;;;;5081416;28;20199;-66
2023/09/15 02:30:06;;;;;;;2.03;1.50;;;;;;;;;;5079168;28;20237;-67
2023/09/15 02:32:33;;;;;;;1.77;1.60;;;;;;;;;;5075597;28;20225;-66
2023/09/15 02:35:00;;;;;;;1.67;1.50;;;;;;;;;;5075940;28;20213;-67
2023/09/15 02:37:27;;;;;;;2.05;1.85;;;;;;;;;;5073663;27;20199;-66
2023/09/15 02:39:56;;;;;;;3.78;1.60;;;;;;;;;;5073156;28;20218;-66
2023/09/15 02:42:23;;;;;;;2.03;1.70;;;;;;;;;;5075886;28;20213;-66
2023/09/15 02:44:50;;;;;;;2.28;1.60;;;;;;;;;;5077468;28;20203;-66
2023/09/15 02:47:18;;;;;;;2.08;1.67;;;;;;;;;;5081034;28;20202;-67
2023/09/15 02:49:45;;;;;;;1.60;1.50;;;;;;;;;;5079316;28;20190;-66
2023/09/15 02:52:13;;;;;;;4.07;1.70;;;;;;;;;;5078366;28;20203;-66
2023/09/15 02:54:40;;;;;;;2.05;1.58;;;;;;;;;;5080374;28;20228;-66
2023/09/15 02:57:08;;;;;;;3.08;1.52;;;;;;;;;;5081835;28;20199;-66
2023/09/15 02:59:35;;;;;;;3.13;1.50;;;;;;;;;;5077306;28;20222;-66
2023/09/15 03:02:03;;;;;;;2.58;1.80;;;;;;;;;;5077175;28;20206;-66
2023/09/15 03:04:30;;;;;;;2.65;1.60;;;;;;;;;;5074982;28;20202;-66
2023/09/15 03:06:57;;;;;;;1.50;1.40;;;;;;;;;;5078148;28;20195;-66
2023/09/15 03:09:24;;;;;;;2.00;1.60;;;;;;;;;;5075789;28;20199;-68
2023/09/15 03:11:51;;;;;;;2.17;1.60;;;;;;;;;;5081181;28;20209;-66
2023/09/15 03:14:20;;;;;;;4.05;1.70;;;;;;;;;;5075194;28;20202;-68
2023/09/15 03:16:47;;;;;;;2.47;1.60;;;;;;;;;;5073901;28;20199;-67
2023/09/15 03:19:14;;;;;;;2.92;1.60;;;;;;;;;;5074108;28;20218;-66
2023/09/15 03:21:42;;;;;;;1.77;1.50;;;;;;;;;;5075090;28;20403;-66
2023/09/15 03:24:09;;;;;;;2.25;1.70;;;;;;;;;;5077744;28;20212;-66
2023/09/15 03:26:39;;;;;;;2.97;1.50;;;;;;;;;;5076386;28;20229;-66
2023/09/15 03:29:06;;;;;;;3.13;1.60;;;;;;;;;;5077765;28;20262;-66
2023/09/15 03:31:34;;;;;;;3.35;1.80;;;;;;;;;;5076529;28;20203;-66
2023/09/15 03:34:02;;;;;;;2.60;1.70;;;;;;;;;;5072579;28;20207;-66
2023/09/15 03:36:29;;;;;;;3.78;1.90;;;;;;;;;;5076254;28;20210;-66
2023/09/15 03:38:56;;;;;;;2.22;1.60;;;;;;;;;;5078334;28;20237;-68
2023/09/15 03:41:24;;;;;;;2.05;1.60;;;;;;;;;;5075626;28;20229;-66
2023/09/15 03:43:51;;;;;;;4.30;1.70;;;;;;;;;;5071813;28;20293;-66
2023/09/15 03:46:18;;;;;;;2.13;1.88;;;;;;;;;;5075102;28;20198;-66
2023/09/15 03:48:46;;;;;;;2.03;1.83;;;;;;;;;;5073075;28;20206;-66
2023/09/15 03:51:14;;;;;;;2.27;1.73;;;;;;;;;;5076002;28;20210;-66
2023/09/15 03:53:41;;;;;;;2.35;1.60;;;;;;;;;;5071036;28;20224;-67
2023/09/15 03:56:07;;;;;;;2.38;1.60;;;;;;;;;;5074320;28;20206;-66
2023/09/15 03:58:34;;;;;;;1.60;1.50;;;;;;;;;;5076188;28;20198;-66
2023/09/15 04:01:03;;;;;;;1.67;1.30;;;;;;;;;;5082139;28;20198;-66
2023/09/15 04:03:30;;;;;;;2.20;1.88;;;;;;;;;;5076717;28;20285;-67
2023/09/15 04:05:58;;;;;;;1.83;1.67;;;;;;;;;;5073291;28;20226;-66
2023/09/15 04:08:26;;;;;;;2.28;1.80;;;;;;;;;;5074466;28;20207;-66
2023/09/15 04:10:53;;;;;;;1.95;1.63;;;;;;;;;;5081548;28;20209;-66
2023/09/15 04:13:20;;;;;;;2.50;1.70;;;;;;;;;;5078893;28;20199;-66
2023/09/15 04:15:50;;;;;;;2.80;1.73;;;;;;;;;;5070078;28;20201;-67
2023/09/15 04:18:18;;;;;;;2.58;1.80;;;;;;;;;;5079259;28;20204;-67
2023/09/15 04:20:45;;;;;;;2.80;1.77;;;;;;;;;;5076198;28;20222;-67
2023/09/15 04:23:13;;;;;;;2.17;1.70;;;;;;;;;;5078323;28;20203;-67
2023/09/15 04:25:40;;;;;;;2.10;1.63;;;;;;;;;;5077956;28;20198;-66
2023/09/15 04:28:07;;;;;;;1.70;1.60;;;;;;;;;;5074271;28;20209;-66
2023/09/15 04:30:34;;;;;;;3.15;1.88;;;;;;;;;;5067886;28;20202;-66
2023/09/15 04:33:02;;;;;;;2.60;1.80;;;;;;;;;;5071223;28;20206;-67
2023/09/15 04:35:29;;;;;;;2.08;1.67;;;;;;;;;;5075175;28;20212;-66
2023/09/15 04:37:56;;;;;;;1.77;1.67;;;;;;;;;;5078003;28;20226;-66
2023/09/15 04:40:25;;;;;;;2.60;1.70;;;;;;;;;;5073210;28;20237;-66
2023/09/15 04:42:52;;;;;;;2.57;1.60;;;;;;;;;;5070893;28;20214;-67
2023/09/15 04:45:19;;;;;;;1.90;1.73;;;;;;;;;;5071560;28;20249;-67
2023/09/15 04:47:47;;;;;;;3.72;1.95;;;;;;;;;;5073763;28;20205;-67
2023/09/15 04:50:14;;;;;;;4.82;2.03;;;;;;;;;;5072254;28;20222;-66
2023/09/15 04:52:41;;;;;;;2.97;1.73;;;;;;;;;;5072084;28;20203;-66
2023/09/15 04:55:08;;;;;;;3.50;1.97;;;;;;;;;;5077176;28;20198;-66
2023/09/15 04:57:37;;;;;;;2.30;1.50;;;;;;;;;;5073684;28;20256;-67
2023/09/15 05:00:12;;;;;;;4.10;1.90;;;;;;;;;;5074591;28;20228;-67
2023/09/15 05:02:42;;;;;;;2.50;1.67;;;;;;;;;;5066265;28;20210;-67
2023/09/15 05:05:09;;;;;;;2.50;1.70;;;;;;;;;;5077307;28;20210;-66
2023/09/15 05:07:36;;;;;;;2.97;1.90;;;;;;;;;;5078323;28;20216;-67
2023/09/15 05:10:03;;;;;;;3.10;1.70;;;;;;;;;;5076392;28;20198;-66
2023/09/15 05:12:30;;;;;;;3.72;1.90;;;;;;;;;;5077623;28;20202;-67
2023/09/15 05:14:59;;;;;;;3.00;1.60;;;;;;;;;;5068814;28;20221;-66
2023/09/15 05:17:26;;;;;;;3.03;2.00;;;;;;;;;;5075436;28;20207;-66
2023/09/15 05:19:55;;;;;;;2.00;1.90;;;;;;;;;;5074304;28;20793;-66
2023/09/15 05:22:22;;;;;;;2.87;1.57;;;;;;;;;;5078593;28;20293;-66
2023/09/15 05:24:49;;;;;;;4.03;2.00;;;;;;;;;;5078820;28;20291;-67
2023/09/15 05:27:17;;;;;;;3.40;2.10;;;;;;;;;;5075928;28;20211;-68
2023/09/15 05:29:44;;;;;;;2.67;1.77;;;;;;;;;;5077000;28;20262;-67
2023/09/15 05:32:12;;;;;;;2.23;1.40;;;;;;;;;;5067736;28;20214;-66
2023/09/15 05:34:40;;;;;;;2.33;1.70;;;;;;;;;;5079004;28;20213;-68
2023/09/15 05:37:07;;;;;;;2.03;1.63;;;;;;;;;;5077309;28;20198;-67
2023/09/15 05:39:34;;;;;;;3.27;1.60;;;;;;;;;;5079029;28;20233;-66
2023/09/15 05:42:03;;;;;;;1.60;1.50;;;;;;;;;;5081228;28;20202;-66
2023/09/15 05:44:30;;;;;;;1.97;1.63;;;;;;;;;;5077254;28;20217;-66
2023/09/15 05:46:57;;;;;;;2.20;1.70;;;;;;;;;;5073235;28;20214;-67
2023/09/15 05:49:26;;;;;;;2.80;1.60;;;;;;;;;;5076868;28;20260;-67
2023/09/15 05:51:53;;;;;;;7.27;1.80;;;;;;;;;;5079516;28;20202;-67
2023/09/15 05:54:20;;;;;;;2.63;2.00;;;;;;;;;;5079713;28;20213;-66
2023/09/15 05:56:48;;;;;;;2.50;2.00;;;;;;;;;;5077983;28;20211;-66
2023/09/15 05:59:15;;;;;;;2.90;2.00;;;;;;;;;;5084448;28;20203;-66
2023/09/15 06:01:46;;;;;;;2.57;1.90;;;;;;;;;;5080474;28;20202;-66
2023/09/15 06:04:14;;;;;;;3.33;2.10;;;;;;;;;;5083431;28;20453;-66
2023/09/15 06:06:42;;;;;;;3.37;1.80;;;;;;;;;;5079807;28;20210;-66
2023/09/15 06:09:10;;;;;;;2.30;1.70;;;;;;;;;;5076906;28;20233;-66
2023/09/15 06:11:37;;;;;;;2.33;1.73;;;;;;;;;;5078694;28;20230;-66
2023/09/15 06:14:04;;;;;;;2.20;1.87;;;;;;;;;;5079505;28;20222;-66
2023/09/15 06:16:33;;;;;;;2.20;2.00;;;;;;;;;;5077176;28;20202;-67
2023/09/15 06:19:02;;;;;;;2.30;1.90;;;;;;;;;;5083216;28;20217;-67
2023/09/15 06:21:29;;;;;;;2.80;1.80;;;;;;;;;;5076016;28;20211;-66
2023/09/15 06:23:58;;;;;;;2.50;1.93;;;;;;;;;;5081177;28;20202;-66
2023/09/15 06:26:25;;;;;;;2.20;2.00;;;;;;;;;;5081994;28;20210;-66
2023/09/15 06:28:53;;;;;;;1.93;1.77;;;;;;;;;;5082380;28;20268;-66
2023/09/15 06:31:20;;;;;;;3.47;1.90;;;;;;;;;;5077963;28;20204;-67
2023/09/15 06:33:47;;;;;;;2.93;2.07;;;;;;;;;;5075838;28;20210;-66
2023/09/15 06:36:15;;;;;;;3.33;1.90;;;;;;;;;;5075941;28;20213;-66
2023/09/15 06:38:42;;;;;;;5.70;1.80;;;;;;;;;;5079151;28;20209;-67
2023/09/15 06:41:11;;;;;;;3.63;2.10;;;;;;;;;;5084981;28;20226;-67
2023/09/15 06:43:38;;;;;;;2.93;2.13;;;;;;;;;;5076811;28;20198;-66
2023/09/15 06:46:05;;;;;;;2.43;1.90;;;;;;;;;;5069885;28;20203;-66
2023/09/15 06:48:33;;;;;;;2.60;1.90;;;;;;;;;;5077922;28;20194;-66
2023/09/15 06:51:00;;;;;;;2.23;1.70;;;;;;;;;;5079906;28;20203;-66
2023/09/15 06:53:27;;;;;;;3.33;1.95;;;;;;;;;;5079368;28;20209;-66
2023/09/15 06:55:56;;;;;;;3.13;1.70;;;;;;;;;;5075725;28;20211;-66
2023/09/15 06:58:25;;;;;;;2.97;1.70;;;;;;;;;;5078061;28;20220;-66
2023/09/15 07:00:52;;;;;;;2.95;1.88;;;;;;;;;;5073750;28;20219;-66
2023/09/15 07:03:20;;;;;;;1.67;1.57;;;;;;;;;;5075322;28;20226;-66
2023/09/15 07:05:47;;;;;;;2.65;1.65;;;;;;;;;;5079978;28;20489;-65
2023/09/15 07:08:15;;;;;;;2.25;1.98;;;;;;;;;;5084020;28;20211;-65
2023/09/15 07:10:43;;;;;;;1.63;1.52;;;;;;;;;;5075695;28;20202;-70
2023/09/15 07:13:11;;;;;;;2.03;1.70;;;;;;;;;;5075488;28;20206;-71
2023/09/15 07:15:39;;;;;;;2.15;1.70;;;;;;;;;;5076160;28;20205;-71
2023/09/15 07:18:09;;;;;;;2.20;1.73;;;;;;;;;;5074631;28;20203;-70
2023/09/15 07:20:36;;;;;;;2.38;1.70;;;;;;;;;;5074573;28;20215;-71
2023/09/15 07:23:04;;;;;;;3.30;1.70;;;;;;;;;;5076434;28;20213;-70
2023/09/15 07:25:31;;;;;;;1.60;1.50;;;;;;;;;;5073995;28;20206;-71
2023/09/15 07:27:58;;;;;;;3.72;1.92;;;;;;;;;;5073887;28;20217;-71
2023/09/15 07:30:26;;;;;;;2.33;1.60;;;;;;;;;;5079394;28;20190;-70
2023/09/15 07:32:55;;;;;;;2.45;1.83;;;;;;;;;;5080444;28;20311;-71
2023/09/15 07:35:23;;;;;;;2.92;1.80;;;;;;;;;;5074975;28;20210;-70
2023/09/15 07:37:50;;;;;;;3.10;1.67;;;;;;;;;;5074232;28;20251;-70
2023/09/15 07:40:19;;;;;;;3.30;1.70;;;;;;;;;;5074442;28;20227;-70
2023/09/15 07:42:46;;;;;;;3.42;1.83;;;;;;;;;;5071616;28;20209;-70
2023/09/15 07:45:13;;;;;;;2.13;1.83;;;;;;;;;;5073978;28;20203;-69
2023/09/15 07:47:41;;;;;;;3.15;1.90;;;;;;;;;;5072805;28;20210;-70
2023/09/15 07:50:09;;;;;;;2.35;1.63;;;;;;;;;;5075325;28;20201;-69
2023/09/15 07:52:36;;;;;;;2.53;1.80;;;;;;;;;;5071647;28;20278;-69
2023/09/15 07:55:04;;;;;;;2.63;1.85;;;;;;;;;;5069878;28;20209;-70
2023/09/15 07:57:32;;;;;;;1.98;1.80;;;;;;;;;;5082218;28;20198;-69
2023/09/15 07:59:59;;;;;;;2.80;1.70;;;;;;;;;;5074541;28;20206;-69
2023/09/15 08:02:27;;;;;;;4.32;1.75;;;;;;;;;;5072713;28;20213;-70
2023/09/15 08:04:54;;;;;;;2.40;1.60;;;;;;;;;;5089368;28;20201;-68
2023/09/15 08:07:23;;;;;;;3.80;1.40;;;;;;;;;;5071114;28;20213;-69
2023/09/15 08:09:52;;;;;;;1.85;1.60;;;;;;;;;;5082946;28;20206;-69
2023/09/15 08:12:19;;;;;;;4.03;1.70;;;;;;;;;;5079259;28;20216;-69
2023/09/15 08:14:47;;;;;;;2.15;1.45;;;;;;;;;;5077373;28;20285;-69
2023/09/15 08:17:14;;;;;;;2.55;1.67;;;;;;;;;;5081869;28;20209;-69
2023/09/15 08:19:41;;;;;;;3.65;1.45;;;;;;;;;;5078421;28;20202;-64
2023/09/15 08:22:08;;;;;;;1.67;1.58;;;;;;;;;;5080469;28;20229;-64
2023/09/15 08:24:37;;;;;;;1.83;1.65;;;;;;;;;;5078550;28;20227;-65
2023/09/15 08:27:04;;;;;;;1.65;1.50;;;;;;;;;;5079834;28;20203;-65
2023/09/15 08:29:31;;;;;;;3.72;1.60;;;;;;;;;;5077730;28;20296;-65
2023/09/15 08:31:59;;;;;;;2.15;1.70;;;;;;;;;;5085814;28;20222;-64
2023/09/15 08:34:26;;;;;;;2.05;1.38;;;;;;;;;;5081933;28;20206;-64
2023/09/15 08:36:53;;;;;;;1.60;1.50;;;;;;;;;;5089273;28;20210;-64
2023/09/15 08:39:21;;;;;;;2.20;1.60;;;;;;;;;;5077138;28;20207;-64
2023/09/15 08:41:52;;;;;;;2.25;1.40;;;;;;;;;;5077605;28;20251;-65
2023/09/15 08:44:20;;;;;;;2.78;1.40;;;;;;;;;;5076306;28;20286;-64
2023/09/15 08:46:48;;;;;;;3.08;1.73;;;;;;;;;;5075056;28;20203;-64
2023/09/15 08:49:16;;;;;;;2.67;1.70;;;;;;;;;;5075246;28;20203;-65
2023/09/15 08:51:44;;;;;;;2.55;1.80;;;;;;;;;;5077786;28;20203;-65
2023/09/15 08:54:12;;;;;;;4.28;1.90;;;;;;;;;;5081240;28;20209;-66
2023/09/15 08:56:40;;;;;;;2.53;1.60;;;;;;;;;;5079244;28;20202;-64
2023/09/15 08:59:09;;;;;;;1.73;1.60;;;;;;;;;;5076250;28;20233;-64
2023/09/15 09:01:37;;;;;;;2.17;1.58;;;;;;;;;;5079749;28;20221;-65
2023/09/15 09:04:04;;;;;;;1.65;1.50;;;;;;;;;;5080409;28;20218;-65
2023/09/15 09:06:34;;;;;;;3.05;1.60;;;;;;;;;;5084389;28;20198;-64
2023/09/15 09:09:02;;;;;;;2.03;1.50;;;;;;;;;;5078945;28;20281;-64
2023/09/15 09:11:30;;;;;;;2.95;1.60;;;;;;;;;;5078381;28;20195;-64
2023/09/15 09:13:57;;;;;;;2.17;1.80;;;;;;;;;;5075833;28;20202;-65
2023/09/15 09:16:26;;;;;;;2.22;1.70;;;;;;;;;;5078339;28;20207;-64
2023/09/15 09:18:57;;;;;;;2.83;1.73;;;;;;;;;;5078092;28;20206;-64
2023/09/15 09:21:25;;;;;;;3.92;1.60;;;;;;;;;;5076116;28;20233;-64
2023/09/15 09:23:52;;;;;;;5.55;1.40;;;;;;;;;;5081763;28;20202;-64
2023/09/15 09:26:20;;;;;;;4.35;1.58;;;;;;;;;;5082717;28;20202;-64
2023/09/15 09:28:48;;;;;;;4.38;1.80;;;;;;;;;;5080727;28;20253;-63
2023/09/15 09:31:16;;;;;;;2.42;1.70;;;;;;;;;;5082286;28;20203;-68
2023/09/15 09:33:44;;;;;;;1.73;1.40;;;;;;;;;;5080166;28;20199;-68
2023/09/15 09:36:13;;;;;;;3.00;1.70;;;;;;;;;;5071102;28;20210;-68
2023/09/15 09:38:45;;;;;;;2.55;1.65;;;;;;;;;;5083774;28;20210;-68
2023/09/15 09:41:12;;;;;;;1.98;1.50;;;;;;;;;;5078236;28;20215;-67
2023/09/15 09:43:40;;;;;;;2.90;1.60;;;;;;;;;;5083663;28;20206;-67
2023/09/15 09:46:08;;;;;;;1.92;1.60;;;;;;;;;;5082471;28;20210;-67
2023/09/15 09:48:36;;;;;;;1.83;1.60;;;;;;;;;;5080909;28;20194;-68
2023/09/15 09:51:05;;;;;;;2.88;1.60;;;;;;;;;;5076549;28;20190;-68
2023/09/15 09:53:33;;;;;;;1.52;1.40;;;;;;;;;;5077320;28;20203;-68
2023/09/15 09:56:02;;;;;;;2.55;1.70;;;;;;;;;;5090013;28;20202;-68
2023/09/15 09:58:29;;;;;;;1.55;1.30;;;;;;;;;;5084748;28;20206;-67
2023/09/15 10:00:56;;;;;;;3.30;1.60;;;;;;;;;;5080208;28;20221;-68
2023/09/15 10:03:24;;;;;;;1.92;1.63;;;;;;;;;;5080684;28;20452;-67
2023/09/15 10:05:52;;;;;;;1.75;1.30;;;;;;;;;;5077321;28;20210;-67
2023/09/15 10:08:20;;;;;;;1.75;1.30;;;;;;;;;;5081660;28;20201;-67
2023/09/15 10:10:50;;;;;;;3.13;1.67;;;;;;;;;;5078419;28;20233;-67
2023/09/15 10:13:18;;;;;;;1.58;1.48;;;;;;;;;;5079645;28;20206;-67
2023/09/15 10:15:45;;;;;;;2.72;1.70;;;;;;;;;;5079756;28;20234;-68
2023/09/15 10:18:14;;;;;;;3.75;1.55;;;;;;;;;;5073314;28;20206;-67
2023/09/15 10:20:42;;;;;;;1.95;1.55;;;;;;;;;;5078670;28;20222;-68
2023/09/15 10:23:10;;;;;;;1.70;1.60;;;;;;;;;;5079380;28;20206;-68
2023/09/15 10:25:42;;;;;;;2.45;1.70;;;;;;;;;;5078579;28;20199;-67
2023/09/15 10:28:09;;;;;;;2.83;1.60;;;;;;;;;;5080169;28;20251;-67
2023/09/15 10:30:37;;;;;;;1.63;1.52;;;;;;;;;;5079011;28;20213;-68
2023/09/15 10:33:05;;;;;;;1.90;1.60;;;;;;;;;;5081950;28;20194;-67
2023/09/15 10:35:33;;;;;;;2.88;1.30;;;;;;;;;;5084521;28;20297;-67
2023/09/15 10:38:03;;;;;;;2.22;1.63;;;;;;;;;;5082501;28;20251;-67
2023/09/15 10:40:31;;;;;;;1.38;1.27;;;;;;;;;;5078277;28;20212;-64
2023/09/15 10:43:08;;;;;;;1.70;1.60;;;;;;;;;;5084824;28;20222;-63
2023/09/15 10:45:35;;;;;;;2.08;1.70;;;;;;;;;;5077621;28;20260;-64
2023/09/15 10:48:04;;;;;;;3.78;1.55;;;;;;;;;;5075677;28;20206;-64
2023/09/15 10:50:32;;;;;;;3.05;1.42;;;;;;;;;;5078893;28;20330;-64
2023/09/15 10:53:07;;;;;;;2.28;1.45;;;;;;;;;;5079735;28;20247;-64
2023/09/15 10:55:34;;;;;;;4.30;1.50;;;;;;;;;;5077825;28;20206;-63
2023/09/15 10:58:03;;;;;;;2.75;1.65;;;;;;;;;;5076817;28;20206;-64
2023/09/15 11:00:31;;;;;;;2.35;1.50;;;;;;;;;;5078734;28;20232;-64
2023/09/15 11:02:58;;;;;;;1.70;1.40;;;;;;;;;;5070147;28;20223;-64
2023/09/15 11:05:26;;;;;;;2.42;1.40;;;;;;;;;;5075815;28;20316;-65
2023/09/15 11:07:55;;;;;;;2.38;1.60;;;;;;;;;;5069769;28;20276;-64
2023/09/15 11:10:27;;;;;;;2.40;1.48;;;;;;;;;;5078896;28;20198;-64
2023/09/15 11:12:58;;;;;;;1.65;1.52;;;;;;;;;;5077588;28;20199;-63
2023/09/15 11:15:27;;;;;;;3.20;1.70;;;;;;;;;;5075400;28;20268;-65
2023/09/15 11:17:54;;;;;;;1.55;1.45;;;;;;;;;;5072398;28;20203;-64
2023/09/15 11:20:22;;;;;;;2.05;1.63;;;;;;;;;;5073606;28;20199;-63
2023/09/15 11:22:55;;;;;;;2.10;1.90;;;;;;;;;;5075921;28;20254;-65
2023/09/15 11:25:22;;;;;;;1.35;1.35;;;;;;;;;;5077238;28;20203;-63
2023/09/15 11:27:49;;;;;;;3.20;1.80;;;;;;;;;;5072181;28;20247;-63
2023/09/15 11:30:16;;;;;;;1.90;1.58;;;;;;;;;;5077763;28;20236;-64
2023/09/15 11:32:46;;;;;;;1.95;1.60;;;;;;;;;;5074851;28;20226;-63
2023/09/15 11:35:13;;;;;;;2.85;1.60;;;;;;;;;;5079734;28;20792;-64
2023/09/15 11:37:41;;;;;;;2.47;1.50;;;;;;;;;;5078358;28;20282;-64
2023/09/15 11:40:08;;;;;;;1.58;1.38;;;;;;;;;;5073084;28;20202;-63
2023/09/15 11:42:36;;;;;;;1.73;1.63;;;;;;;;;;5075986;28;20222;-63
2023/09/15 11:45:04;;;;;;;1.70;1.60;;;;;;;;;;5080804;28;20202;-64
2023/09/15 11:47:32;;;;;;;2.00;1.48;;;;;;;;;;5075164;28;20213;-64
2023/09/15 11:50:03;;;;;;;2.85;1.70;;;;;;;;;;5081131;28;20203;-63
2023/09/15 11:52:31;;;;;;;4.47;1.67;;;;;;;;;;5074377;28;20194;-63
2023/09/15 11:54:59;;;;;;;3.17;1.63;;;;;;;;;;5079516;28;20203;-64
2023/09/15 11:57:26;;;;;;;2.55;1.60;;;;;;;;;;5073078;28;20490;-63
2023/09/15 11:59:53;;;;;;;1.75;1.65;;;;;;;;;;5074868;28;20203;-65
2023/09/15 12:02:22;;;;;;;1.70;1.60;;;;;;;;;;5077584;28;20224;-65
2023/09/15 12:04:49;;;;;;;2.17;1.65;;;;;;;;;;5081313;28;20201;-64
2023/09/15 12:07:17;;;;;;;1.80;1.55;;;;;;;;;;5075621;28;20191;-63
2023/09/15 12:09:45;;;;;;;2.30;1.60;;;;;;;;;;5078078;28;20208;-65
2023/09/15 12:12:17;;;;;;;2.45;1.67;;;;;;;;;;5077440;28;20190;-63
2023/09/15 12:14:46;;;;;;;2.03;1.73;;;;;;;;;;5078765;28;20210;-63
2023/09/15 12:17:15;;;;;;;1.58;1.48;;;;;;;;;;5073477;28;20305;-64
2023/09/15 12:19:42;;;;;;;2.08;1.70;;;;;;;;;;5075661;28;20217;-63
2023/09/15 12:22:09;;;;;;;3.53;1.50;;;;;;;;;;5085763;28;20225;-64
2023/09/15 12:24:37;;;;;;;10.77;2.60;;;;;;;;;;5079114;28;20199;-63
2023/09/15 12:27:05;;;;;;;2.08;1.58;;;;;;;;;;5080730;28;20207;-63
2023/09/15 12:29:32;;;;;;;1.67;1.58;;;;;;;;;;5081991;28;20234;-63
2023/09/15 12:31:59;;;;;;;2.05;1.77;;;;;;;;;;5078549;28;20226;-64
2023/09/15 12:34:27;;;;;;;1.70;1.60;;;;;;;;;;5087692;28;20216;-63
2023/09/15 12:36:55;;;;;;;2.00;1.80;;;;;;;;;;5081950;28;20213;-63
2023/09/15 12:39:23;;;;;;;1.70;1.52;;;;;;;;;;5071300;28;20214;-63
2023/09/15 12:42:00;;;;;;;1.77;1.60;;;;;;;;;;5079141;28;20218;-63
2023/09/15 12:44:27;;;;;;;1.80;1.70;;;;;;;;;;5079548;28;20206;-63
2023/09/15 12:46:55;;;;;;;2.53;1.38;;;;;;;;;;5092602;28;20212;-62
2023/09/15 12:49:22;;;;;;;1.77;1.67;;;;;;;;;;5084889;28;20211;-63
2023/09/15 12:51:49;;;;;;;1.70;1.60;;;;;;;;;;5078045;28;20228;-63
2023/09/15 12:54:16;;;;;;;2.22;1.60;;;;;;;;;;5084876;28;20410;-64
2023/09/15 12:56:43;;;;;;;1.85;1.60;;;;;;;;;;5086542;28;20210;-63
2023/09/15 12:59:13;;;;;;;1.77;1.67;;;;;;;;;;5074730;28;20203;-63
2023/09/15 13:01:40;;;;;;;2.47;1.70;;;;;;;;;;5074362;28;20214;-63
2023/09/15 13:04:07;;;;;;;2.13;1.70;;;;;;;;;;5079337;28;20202;-63
2023/09/15 13:06:34;;;;;;;1.75;1.65;;;;;;;;;;5090130;28;20213;-63
2023/09/15 13:09:01;;;;;;;1.90;1.70;;;;;;;;;;5082317;28;20219;-62
2023/09/15 13:11:28;;;;;;;1.83;1.73;;;;;;;;;;5085333;28;20195;-63
2023/09/15 13:13:56;;;;;;;1.67;1.58;;;;;;;;;;5079614;28;20283;-63
2023/09/15 13:16:24;;;;;;;1.63;1.52;;;;;;;;;;5078954;28;20203;-63
2023/09/15 13:18:51;;;;;;;2.00;1.80;;;;;;;;;;5087611;28;20205;-63
2023/09/15 13:21:18;;;;;;;1.70;1.60;;;;;;;;;;5084488;28;20217;-62
2023/09/15 13:23:45;;;;;;;1.85;1.70;;;;;;;;;;5075726;28;20222;-63
2023/09/15 13:26:13;;;;;;;1.73;1.63;;;;;;;;;;5072034;28;20315;-64
2023/09/15 13:28:40;;;;;;;2.22;1.70;;;;;;;;;;5078614;28;20238;-63
2023/09/15 13:31:07;;;;;;;2.90;1.75;;;;;;;;;;5081877;28;20222;-64
2023/09/15 13:33:36;;;;;;;2.35;1.70;;;;;;;;;;5082140;28;20225;-63
2023/09/15 13:36:04;;;;;;;1.75;1.65;;;;;;;;;;5087388;28;20202;-63
2023/09/15 13:38:31;;;;;;;4.47;1.67;;;;;;;;;;5078234;28;20199;-63
2023/09/15 13:40:57;;;;;;;2.22;1.70;;;;;;;;;;5074131;28;20210;-63
2023/09/15 13:43:24;;;;;;;2.03;1.80;;;;;;;;;;5074080;28;20233;-63
2023/09/15 13:45:52;;;;;;;2.33;1.48;;;;;;;;;;5073997;28;20214;-63
2023/09/15 13:48:20;;;;;;;3.05;1.80;;;;;;;;;;5073878;28;20209;-62
2023/09/15 13:50:48;;;;;;;2.75;1.60;;;;;;;;;;5082224;28;20210;-63
2023/09/15 13:53:15;;;;;;;1.85;1.55;;;;;;;;;;5076265;28;20195;-64
2023/09/15 13:55:42;;;;;;;1.80;1.70;;;;;;;;;;5084984;28;20206;-63
2023/09/15 13:58:10;;;;;;;2.10;1.70;;;;;;;;;;5081515;28;20206;-63
2023/09/15 14:00:37;;;;;;;2.95;1.90;;;;;;;;;;5082720;28;20251;-63
2023/09/15 14:03:04;;;;;;;1.80;1.70;;;;;;;;;;5081074;28;20303;-64
2023/09/15 14:05:31;;;;;;;2.15;1.63;;;;;;;;;;5082052;28;20481;-63
2023/09/15 14:08:00;;;;;;;2.20;1.73;;;;;;;;;;5081271;28;20220;-63
2023/09/15 14:10:27;;;;;;;2.00;1.80;;;;;;;;;;5082320;28;20195;-67
2023/09/15 14:12:54;;;;;;;2.40;2.00;;;;;;;;;;5082193;28;20199;-67
2023/09/15 14:15:21;;;;;;;1.95;1.60;;;;;;;;;;5085239;28;20217;-67
2023/09/15 14:17:48;;;;;;;1.98;1.80;;;;;;;;;;5082241;28;20206;-67
2023/09/15 14:20:15;;;;;;;1.60;1.50;;;;;;;;;;5082579;28;20209;-67
2023/09/15 14:22:42;;;;;;;2.22;1.77;;;;;;;;;;5077118;28;20227;-67
2023/09/15 14:25:11;;;;;;;1.90;1.80;;;;;;;;;;5080787;28;20206;-67
2023/09/15 14:27:39;;;;;;;2.45;2.10;;;;;;;;;;5079121;28;20214;-67
2023/09/15 14:30:06;;;;;;;1.80;1.70;;;;;;;;;;5080228;28;20235;-67
2023/09/15 14:32:34;;;;;;;1.92;1.70;;;;;;;;;;5080325;28;20199;-67
2023/09/15 14:35:02;;;;;;;2.38;1.70;;;;;;;;;;5077750;28;20213;-67
2023/09/15 14:37:32;;;;;;;2.95;1.77;;;;;;;;;;5074588;28;20250;-68
2023/09/15 14:39:59;;;;;;;2.00;1.90;;;;;;;;;;5080249;28;20234;-68
2023/09/15 14:42:28;;;;;;;2.65;1.67;;;;;;;;;;5075843;28;20223;-68
2023/09/15 14:44:55;;;;;;;2.50;1.88;;;;;;;;;;5076082;28;20211;-68
2023/09/15 14:47:24;;;;;;;2.15;1.80;;;;;;;;;;5073110;28;20221;-69